Tuesday, March 19, 2019, 11:15 PM EDT
Back to Local

KMPV, Knapp State Airport

Location: Barre, VT, United States Lat: 44.2
Local Time: 11:15 PM EDT ( 3:15 GMT) Lon: -72.567
Time Zone: US/Eastern Elev: 1164 ft

Show me the last for .
Show Coded

Time T Td Feel RH Dir Speed Gust Alt SLP Vis Weather Sky Remarks
2019-03-19 22:51 19 7 - 58 - Calm - 30.36 30.42 10 CLR None
2019-03-19 21:51 19 9 12 64 160° 5 - 30.36 30.42 10 CLR None
2019-03-19 20:51 21 7 - 53 - Calm - 30.36 30.42 10 CLR None
2019-03-19 19:51 26 5 - 39 - Calm - 30.35 30.42 10 CLR 6-hr Min Temp (8pm): 26.1°F
6-hr Max Temp (8pm): 32.0°F
2019-03-19 18:51 29 6 23 37 320° 6 - 30.35 30.41 10 CLR None
2019-03-19 17:51 32 6 26 32 350° 7 - 30.34 30.40 10 CLR None
2019-03-19 16:51 32 7 23 34 340° 12 - 30.33 30.39 10 CLR None
2019-03-19 15:51 31 6 18 34 320° 8 22 30.34 30.40 10 CLR None
2019-03-19 14:51 31 8 22 37 330° 12 - 30.35 30.41 10 CLR None
2019-03-19 13:51 30 5 17 33 340° 10 22 30.37 30.42 10 CLR 6-hr Min Temp (2pm): 14.0°F
6-hr Max Temp (2pm): 30.0°F
2019-03-19 12:51 29 5 18 35 320° 15 - 30.37 30.43 10 CLR None
2019-03-19 11:51 28 8 20 42 350° 8 - 30.37 30.43 10 CLR None
2019-03-19 10:51 26 10 19 50 360° 6 - 30.37 30.43 10 CLR None
2019-03-19 09:51 24 14 17 64 60° 6 - 30.36 30.42 10 CLR None
2019-03-19 08:51 19 13 - 76 - Calm - 30.35 30.42 10 CLR None
2019-03-19 07:51 14 10 - 83 - Calm - 30.34 30.41 10 CLR 6-hr Min Temp (8am): 10.9°F
6-hr Max Temp (8am): 19.9°F
2019-03-19 06:51 13 8 - 80 - Calm - 30.32 30.39 10 CLR None
2019-03-19 05:51 15 9 - 76 - Calm - 30.30 30.37 10 CLR None
2019-03-19 04:51 19 12 - 73 - Calm - 30.30 30.35 10 FEW050 OVC075 None
2019-03-19 03:51 19 12 12 73 180° 5 - 30.28 30.34 10 BKN046 OVC060 None
2019-03-19 02:51 19 12 - 73 - Calm - 30.29 30.35 10 BKN065 OVC080 None
2019-03-19 01:51 20 11 - 67 - Calm - 30.28 30.34 10 SCT055 OVC075 6-hr Min Temp (2am): 16.0°F
6-hr Max Temp (2am): 26.1°F
2019-03-19 00:51 19 9 - 64 - Calm - 30.28 30.34 10 BKN060 OVC070 24-hr Min Temp (1am): 16.0°F
24-hr Max Temp (1am): 32.0°F
2019-03-18 23:51 17 8 12 67 190° 3 - 30.27 30.34 10 CLR None

Support USWX by starting your Amazon purchase here.